Atlanta, IL

10:11 AM CST on November 26, 2014 (GMT -0600)
Lincoln | Change Station
CLOSE
Current Station
Airport
Location: Lincoln,
Elevation: 597 ft
Nearby Weather Stations

Elev 597 ft 40.16 °N, 89.34 °W | Updated 16 minutes ago

Partly Cloudy
Partly Cloudy
31 °F
Feels Like 23 °F
N
9
Wind Variable Wind from ESE

Today
High -- | Low -- °F
--% Chance of Precip.
Yesterday
High -- | Low -- °F
Precip. -- in
6:55 AM 4:33 PM
Waxing Crescent, 20% visible
Pressure 30.11 in
Visibility 5.0 miles
Clouds Scattered Clouds 700 ft
Windchill 23 °F
Dew Point 28 °F
Humidity 87%
Rainfall 0.00 in
Snow Depth Not available.
UV 2 out of 12
Pollen .10 out of 12
Air Quality Not available.
Flu Activity Not available.
METAR KAAA 261555Z AUTO 11008KT 5SM BR SCT007 00/M02 A3011 RMK AO2 T10051024

More Conditions Fewer Conditions

Pressure 30.11 in
Visibility 5.0 miles
Clouds Scattered Clouds 700 ft
Windchill 23 °F
Dew Point 28 °F
Humidity 87%
Rainfall 0.00 in
Snow Depth Not available.
UV 2 out of 12
Pollen .10 out of 12
Air Quality Not available.
Flu Activity Not available.
METAR KAAA 261555Z AUTO 11008KT 5SM BR SCT007 00/M02 A3011 RMK AO2 T10051024

More Conditions Fewer Conditions

10-Day Weather Forecast

Almanac

Astronomy

Nov. 26, 2014 Rise Set
Actual Time
Civil Twilight
Nautical Twilight
Astronomical Twilight
Moon
Length of Visible Light
Length of Day
Tomorrow will be .
, % of the Moon is Illuminated

Today's Extremes

State Highs State Lows

Community

WunderPhotos

Upload Photos

1,773,780 photos uploaded!

WunderBlogs® & News

Nearby

Air Quality

  Air Quality AQ Index Pollutant
Not available.

Snow Depth

Station Depth Elevation

Earthquake Activity

City Distance Mag. Time & Date
Minimum magnitude displayed is 2.5.

Coastal Water Temperatures

Place Temperature

Nearby Weather Stations